This is the latest recevied weather packets stored in our database for station/object OK2CME-6. If no packets are shown the sender has not sent any weather packets the latest 10 day(s).
| Time | Temp. | Humidity | Pressure | Rain* | Wind** | Luminosity | Snow |
|---|---|---|---|---|---|---|---|
| 1778094003 | 17.78° C | 61% | 1009.8 hPa | 0 mm | - | 0 W/m² | - |
| 1778092803 | 17.78° C | 60% | 1009.4 hPa | 0 mm | - | 2 W/m² | - |
| 1778091603 | 18.33° C | 59% | 1009.5 hPa | 0 mm | - | 7 W/m² | - |
| 1778090403 | 18.89° C | 58% | 1009.6 hPa | 0 mm | - | 20 W/m² | - |
| 1778089203 | 19.44° C | 56% | 1009.4 hPa | 0 mm | - | 38 W/m² | - |
| 1778088003 | 20° C | 55% | 1009.6 hPa | 0 mm | - | 60 W/m² | - |
| 1778086803 | 20° C | 54% | 1009.4 hPa | 0 mm | - | 74 W/m² | - |
| 1778085603 | 20.56° C | 53% | 1009.7 hPa | 0 mm | - | 73 W/m² | - |
| 1778084403 | 20.56° C | 53% | 1010.1 hPa | 0 mm | - | 107 W/m² | - |
| 1778083203 | 20° C | 54% | 1010.6 hPa | 0 mm | - | 236 W/m² | - |
| 1778082003 | 20.56° C | 53% | 1010.8 hPa | 0 mm | - | 103 W/m² | - |
| 1778080803 | 20.56° C | 54% | 1010.8 hPa | 0 mm | - | 261 W/m² | - |
| 1778079603 | 20° C | 56% | 1010.7 hPa | 0 mm | - | 165 W/m² | - |
| 1778078403 | 20° C | 58% | 1010.9 hPa | 0 mm | - | 202 W/m² | - |
| 1778040345 | 10.56° C | 85% | 1011.1 hPa | 0 mm | - | 11 W/m² | - |
| 1778039145 | 10.56° C | 84% | 1011.1 hPa | 0 mm | - | 3 W/m² | - |
| 1778037945 | 10.56° C | 82% | 1011.1 hPa | 0 mm | - | 0 W/m² | - |
| 1778036745 | 10.56° C | 82% | 1011.4 hPa | 0 mm | - | 0 W/m² | - |
| 1778035545 | 11.11° C | 81% | 1010.9 hPa | 0 mm | - | 0 W/m² | - |
| 1778034345 | 11.11° C | 80% | 1010.7 hPa | 0 mm | - | 0 W/m² | - |
| 1778033145 | 11.67° C | 78% | 1010.9 hPa | 0 mm | - | 0 W/m² | - |
| 1778031945 | 12.22° C | 77% | 1010.7 hPa | 0 mm | - | 0 W/m² | - |
| 1778030745 | 12.22° C | 77% | 1010.7 hPa | 0 mm | - | 0 W/m² | - |
| 1778029545 | 12.22° C | 75% | 1010.5 hPa | 0 mm | - | 0 W/m² | - |
| 1778028345 | 12.78° C | 74% | 1010.6 hPa | 0 mm | - | 0 W/m² | - |
* Rain latest hour (hover to see other rain measurements)
** Current wind speed in m/s (hover to see current wind gust speed)